Time;durP1;ratioP1;P1;durP2;ratioP2;P2;SDS_P1;SDS_P2;PMS_P1;PMS_P2;Temp;Humidity;BMP_temperature;BMP_pressure;BME280_temperature;BME280_humidity;BME280_pressure;Samples;Min_cycle;Max_cycle;Signal;HPM_P1;HPM_P2
2022/04/08 00:01:36;;;;;;;3.83;1.13;;;;;;;27.28;20.88;101179.28;4954502;29;20102;-73
2022/04/08 00:04:05;;;;;;;2.88;0.88;;;;;;;27.22;20.99;101166.22;4934121;29;20062;-70
2022/04/08 00:06:33;;;;;;;4.00;1.05;;;;;;;27.19;20.36;101161.88;4933966;29;20059;-71
2022/04/08 00:09:02;;;;;;;5.65;1.05;;;;;;;27.21;21.89;101161.81;4932844;29;20139;-72
2022/04/08 00:11:30;;;;;;;1.58;0.80;;;;;;;27.24;21.51;101161.75;4933200;29;20052;-73
2022/04/08 00:14:00;;;;;;;4.18;1.23;;;;;;;27.19;20.54;101153.00;4941002;29;20047;-73
2022/04/08 00:16:29;;;;;;;3.63;0.88;;;;;;;27.09;21.45;101157.75;4951967;29;20556;-73
2022/04/08 00:18:58;;;;;;;3.55;1.00;;;;;;;27.09;21.69;101149.78;4952071;28;20058;-73
2022/04/08 00:21:27;;;;;;;4.78;1.10;;;;;;;27.07;21.42;101146.31;4952062;28;20494;-73
2022/04/08 00:23:55;;;;;;;4.72;1.40;;;;;;;27.05;22.36;101150.81;4951799;28;20063;-73
2022/04/08 00:26:24;;;;;;;4.25;1.13;;;;;;;26.97;21.51;101140.44;4952177;28;20052;-72
2022/04/08 00:28:52;;;;;;;3.58;0.80;;;;;;;26.92;21.82;101135.28;4951523;28;20078;-72
2022/04/08 00:31:23;;;;;;;4.05;1.05;;;;;;;27.01;20.53;101135.88;4951854;28;20106;-72
2022/04/08 00:33:51;;;;;;;3.50;1.00;;;;;;;27.08;21.51;101140.97;4951990;28;20055;-73
2022/04/08 00:36:20;;;;;;;3.25;0.90;;;;;;;27.08;22.42;101140.97;4951585;28;20131;-72
2022/04/08 00:38:48;;;;;;;2.35;0.98;;;;;;;26.94;21.66;101120.16;4950807;28;20083;-72
2022/04/08 00:41:17;;;;;;;5.45;1.00;;;;;;;26.93;21.70;101131.69;4951666;28;20047;-74
2022/04/08 00:43:45;;;;;;;4.05;1.45;;;;;;;26.88;23.61;101115.06;4951394;28;20139;-71
2022/04/08 00:46:14;;;;;;;3.92;1.10;;;;;;;26.95;23.45;101123.69;4951885;28;20149;-73
2022/04/08 00:48:44;;;;;;;3.92;0.90;;;;;;;26.87;22.57;101115.97;4951004;28;20137;-74
2022/04/08 00:51:15;;;;;;;6.60;1.00;;;;;;;26.73;23.16;101113.78;4951546;28;20058;-74
2022/04/08 00:53:46;;;;;;;2.47;1.00;;;;;;;26.62;23.31;101110.59;4954206;28;20103;-72
2022/04/08 00:56:15;;;;;;;3.57;1.00;;;;;;;26.57;22.61;101101.03;4951516;28;20054;-71
2022/04/08 00:58:44;;;;;;;4.97;1.05;;;;;;;26.50;22.62;101095.91;4951680;29;20149;-72
2022/04/08 01:01:13;;;;;;;1.88;0.93;;;;;;;26.46;23.34;101098.69;4950977;29;20060;-72
2022/04/08 01:03:43;;;;;;;5.47;2.15;;;;;;;26.45;23.35;101100.47;4950339;29;20505;-71
2022/04/08 01:06:11;;;;;;;2.58;0.95;;;;;;;26.41;23.03;101095.28;4951060;29;20098;-73
2022/04/08 01:08:41;;;;;;;2.83;1.10;;;;;;;26.36;23.19;101087.47;4951016;29;20106;-73
2022/04/08 01:11:10;;;;;;;3.63;0.90;;;;;;;26.29;23.11;101083.28;4950827;29;20094;-73
2022/04/08 01:13:38;;;;;;;4.47;1.10;;;;;;;26.22;23.05;101081.72;4950911;28;20086;-73
2022/04/08 01:16:08;;;;;;;3.88;1.00;;;;;;;26.12;23.47;101073.19;4950631;29;20047;-74
2022/04/08 01:18:36;;;;;;;5.47;1.48;;;;;;;26.08;24.81;101074.19;4951505;28;20087;-72
2022/04/08 01:21:08;;;;;;;2.78;0.90;;;;;;;26.09;24.99;101079.47;4950138;28;20047;-72
2022/04/08 01:23:37;;;;;;;3.13;0.80;;;;;;;26.06;24.90;101079.53;4950735;28;20139;-72
2022/04/08 01:26:08;;;;;;;6.43;1.00;;;;;;;25.99;25.59;101080.63;4949907;28;20130;-74
2022/04/08 01:28:37;;;;;;;3.55;1.20;;;;;;;25.91;25.50;101080.88;4949100;28;20051;-72
2022/04/08 01:31:05;;;;;;;2.45;0.80;;;;;;;25.85;23.83;101078.34;4949411;28;20600;-73
2022/04/08 01:33:34;;;;;;;2.95;1.10;;;;;;;25.78;24.37;101078.59;4948880;28;20127;-73
2022/04/08 01:36:02;;;;;;;1.38;0.98;;;;;;;25.68;24.42;101073.53;4948935;28;20497;-73
2022/04/08 01:38:31;;;;;;;4.10;1.00;;;;;;;25.61;25.31;101077.28;4948589;28;20050;-73
2022/04/08 01:40:59;;;;;;;3.17;1.08;;;;;;;25.48;25.80;101075.88;4949714;28;20047;-73
2022/04/08 01:43:29;;;;;;;2.15;1.17;;;;;;;25.40;25.88;101072.56;4953337;28;20106;-72
2022/04/08 01:45:58;;;;;;;4.07;1.20;;;;;;;25.36;26.80;101070.88;4950855;28;20055;-72
2022/04/08 01:48:26;;;;;;;3.83;1.30;;;;;;;25.27;27.05;101072.91;4950289;28;20398;-72
2022/04/08 01:50:55;;;;;;;4.55;1.48;;;;;;;25.21;27.69;101075.69;4950122;28;20122;-74
2022/04/08 01:53:23;;;;;;;5.53;1.65;;;;;;;25.16;28.25;101076.72;4949374;28;20557;-73
2022/04/08 01:55:52;;;;;;;5.55;1.80;;;;;;;25.13;28.51;101076.75;4948820;28;20047;-72
2022/04/08 01:58:20;;;;;;;3.67;1.55;;;;;;;25.09;28.69;101073.34;4949031;29;20051;-72
2022/04/08 02:00:50;;;;;;;7.22;2.08;;;;;;;25.04;30.19;101065.53;4949836;29;20568;-73
2022/04/08 02:03:20;;;;;;;8.57;2.70;;;;;;;25.00;33.58;101065.63;4949873;29;20118;-73
2022/04/08 02:05:49;;;;;;;4.15;1.65;;;;;;;24.87;30.29;101065.06;4950288;29;20051;-72
2022/04/08 02:08:17;;;;;;;4.82;1.60;;;;;;;24.71;30.69;101071.66;4950231;29;20521;-73
2022/04/08 02:10:45;;;;;;;5.22;1.70;;;;;;;24.63;31.26;101067.41;4950276;29;20126;-73
2022/04/08 02:13:14;;;;;;;5.20;1.63;;;;;;;24.60;31.40;101074.53;4950126;29;20059;-72
2022/04/08 02:15:42;;;;;;;4.07;1.48;;;;;;;24.56;31.55;101067.59;4950435;29;20094;-74
2022/04/08 02:18:12;;;;;;;6.18;1.60;;;;;;;24.49;32.75;101061.59;4950485;28;20130;-75
2022/04/08 02:20:41;;;;;;;4.03;1.40;;;;;;;24.36;33.51;101062.72;4950275;28;20489;-74
2022/04/08 02:23:10;;;;;;;5.18;1.13;;;;;;;24.26;33.89;101064.72;4949717;28;20506;-74
2022/04/08 02:25:39;;;;;;;3.38;1.55;;;;;;;24.11;33.75;101065.91;4951790;28;20078;-74
2022/04/08 02:28:07;;;;;;;5.15;1.60;;;;;;;23.98;34.70;101070.63;4954113;28;20066;-74
2022/04/08 02:30:36;;;;;;;7.18;1.60;;;;;;;23.89;36.08;101070.81;4954153;28;20059;-75
2022/04/08 02:33:05;;;;;;;7.28;1.60;;;;;;;23.81;36.08;101078.88;4953746;28;20126;-72
2022/04/08 02:35:35;;;;;;;10.10;4.35;;;;;;;23.73;35.92;101079.88;4957302;28;20087;-74
2022/04/08 02:38:04;;;;;;;22.27;12.50;;;;;;;23.63;35.35;101076.56;4954602;28;20063;-73
2022/04/08 02:40:32;;;;;;;17.52;13.32;;;;;;;23.60;35.97;101074.00;4954113;28;20234;-72
2022/04/08 02:43:01;;;;;;;11.60;8.82;;;;;;;23.53;35.61;101082.94;4952972;29;20067;-73
2022/04/08 02:45:30;;;;;;;15.90;10.77;;;;;;;23.42;36.45;101080.50;4953680;28;20493;-72
2022/04/08 02:47:58;;;;;;;10.48;6.00;;;;;;;23.31;36.79;101083.31;4953694;28;20047;-72
2022/04/08 02:50:27;;;;;;;8.75;4.47;;;;;;;23.19;37.90;101083.53;4953704;28;20047;-72
2022/04/08 02:52:57;;;;;;;10.18;4.60;;;;;;;23.08;37.58;101088.13;4953255;28;20123;-73
2022/04/08 02:55:25;;;;;;;8.48;4.85;;;;;;;23.00;38.52;101072.44;4953843;28;20151;-71
2022/04/08 02:57:54;;;;;;;10.43;5.78;;;;;;;22.92;38.22;101069.00;4934682;29;20052;-72
2022/04/08 03:00:22;;;;;;;9.05;4.72;;;;;;;22.85;40.17;101068.25;4933873;29;20134;-72
2022/04/08 03:02:51;;;;;;;10.82;4.50;;;;;;;22.73;39.59;101069.31;4943858;29;20050;-71
2022/04/08 03:05:19;;;;;;;6.78;3.80;;;;;;;22.65;39.80;101083.50;4952909;29;20086;-71
2022/04/08 03:07:48;;;;;;;6.22;3.05;;;;;;;22.53;39.64;101082.78;4952873;29;20048;-71
2022/04/08 03:10:18;;;;;;;19.45;7.07;;;;;;;22.49;39.20;101093.41;4952698;29;20047;-72
2022/04/08 03:12:46;;;;;;;16.65;7.00;;;;;;;22.42;39.71;101090.00;4953582;29;20050;-72
2022/04/08 03:15:15;;;;;;;13.35;5.15;;;;;;;22.34;40.30;101076.06;4953238;29;20047;-72
2022/04/08 03:17:45;;;;;;;22.27;7.07;;;;;;;22.24;39.54;101080.59;4953201;29;20050;-72
2022/04/08 03:20:13;;;;;;;15.98;6.53;;;;;;;22.11;40.35;101094.78;4952964;28;20057;-72
2022/04/08 03:22:42;;;;;;;15.25;5.78;;;;;;;22.00;41.06;101112.50;4953059;28;20047;-73
2022/04/08 03:25:11;;;;;;;12.07;4.50;;;;;;;21.83;44.10;101115.31;4953193;28;20051;-74
2022/04/08 03:27:41;;;;;;;8.88;4.03;;;;;;;21.63;44.14;101115.53;4956639;28;20130;-73
2022/04/08 03:30:10;;;;;;;11.02;4.35;;;;;;;21.42;43.48;101109.59;4953147;28;20615;-72
2022/04/08 03:32:39;;;;;;;7.15;4.03;;;;;;;21.27;43.05;101112.34;4952739;28;20529;-72
2022/04/08 03:35:09;;;;;;;7.55;3.58;;;;;;;21.19;43.61;101111.53;4952592;28;20055;-72
2022/04/08 03:37:37;;;;;;;11.63;4.32;;;;;;;21.16;44.91;101099.25;4952101;28;20145;-73
2022/04/08 03:40:06;;;;;;;14.80;4.93;;;;;;;21.13;44.25;101101.94;4952520;28;20533;-72
2022/04/08 03:42:35;;;;;;;11.95;3.88;;;;;;;21.07;46.03;101108.13;4952762;28;20111;-73
2022/04/08 03:45:06;;;;;;;6.97;3.08;;;;;;;20.95;47.70;101112.59;4952208;28;20047;-72
2022/04/08 03:47:34;;;;;;;8.88;3.70;;;;;;;20.85;45.76;101117.06;4952935;28;20137;-73
2022/04/08 03:50:03;;;;;;;7.15;3.50;;;;;;;20.80;44.51;101119.72;4952392;28;20576;-72
2022/04/08 03:52:32;;;;;;;8.15;3.38;;;;;;;20.74;46.72;101113.63;4952380;28;20126;-76
2022/04/08 03:55:01;;;;;;;10.50;2.80;;;;;;;20.58;45.60;101102.34;4951918;28;20067;-73
2022/04/08 03:57:30;;;;;;;7.15;3.63;;;;;;;20.45;45.32;101114.63;4935302;28;20048;-77
2022/04/08 03:59:59;;;;;;;6.88;3.65;;;;;;;20.35;45.53;101118.22;4932964;29;20494;-74
2022/04/08 04:02:29;;;;;;;11.10;4.07;;;;;;;20.26;46.20;101127.00;4932813;29;20104;-77
2022/04/08 04:04:59;;;;;;;10.60;3.90;;;;;;;20.19;46.27;101123.53;4933106;29;20060;-72
2022/04/08 04:07:28;;;;;;;7.82;3.55;;;;;;;20.15;48.51;101129.69;4932925;29;20052;-72
2022/04/08 04:09:58;;;;;;;6.93;3.15;;;;;;;20.14;47.46;101138.44;4933311;29;20131;-75
2022/04/08 04:12:28;;;;;;;8.48;3.97;;;;;;;20.13;47.84;101146.31;4932772;29;20083;-76
2022/04/08 04:14:57;;;;;;;8.70;3.72;;;;;;;20.08;49.37;101151.59;4933138;29;20047;-75
2022/04/08 04:17:27;;;;;;;5.45;2.75;;;;;;;20.01;50.85;101149.88;4951910;28;20074;-74
2022/04/08 04:19:57;;;;;;;7.32;3.47;;;;;;;19.82;49.07;101157.81;4954713;28;20043;-77
2022/04/08 04:22:25;;;;;;;6.95;3.08;;;;;;;19.68;48.20;101162.19;4952144;28;20051;-76
2022/04/08 04:24:54;;;;;;;10.48;3.15;;;;;;;19.58;50.34;101163.91;4952545;28;20078;-74
2022/04/08 04:27:22;;;;;;;6.35;3.75;;;;;;;19.49;49.87;101173.56;4951831;28;20106;-75
2022/04/08 04:29:51;;;;;;;6.00;3.10;;;;;;;19.35;51.28;101166.56;4951593;28;20105;-74
2022/04/08 04:32:19;;;;;;;7.95;3.20;;;;;;;19.26;51.40;101177.06;4951996;28;20503;-74
2022/04/08 04:34:48;;;;;;;6.55;3.25;;;;;;;19.23;50.40;101188.44;4951621;28;20078;-73
2022/04/08 04:37:19;;;;;;;7.95;3.30;;;;;;;19.20;50.19;101192.81;4951112;28;20051;-74
2022/04/08 04:39:47;;;;;;;8.13;3.15;;;;;;;19.19;50.67;101191.91;4952186;28;20098;-73
2022/04/08 04:42:16;;;;;;;5.95;3.63;;;;;;;19.17;52.46;101188.44;4951220;28;20102;-74
2022/04/08 04:44:44;;;;;;;8.00;2.75;;;;;;;19.10;53.01;101193.66;4951542;28;20054;-74
2022/04/08 04:47:12;;;;;;;9.38;3.67;;;;;;;19.03;53.58;101183.19;4951540;28;20087;-75
2022/04/08 04:49:41;;;;;;;7.47;3.00;;;;;;;19.01;53.21;101181.41;4950597;28;20055;-75
2022/04/08 04:52:10;;;;;;;4.15;2.45;;;;;;;18.99;52.39;101178.81;4950900;28;20055;-75
2022/04/08 04:54:40;;;;;;;7.30;2.75;;;;;;;18.97;50.94;101185.78;4951258;28;20126;-74
2022/04/08 04:57:09;;;;;;;5.22;2.33;;;;;;;18.87;51.16;101188.38;4937485;28;20087;-75
2022/04/08 04:59:38;;;;;;;7.25;2.55;;;;;;;18.80;51.59;101187.47;4932447;29;20067;-75
2022/04/08 05:02:06;;;;;;;3.38;2.22;;;;;;;18.74;51.57;101192.69;4931498;29;20570;-74
2022/04/08 05:04:35;;;;;;;4.07;2.08;;;;;;;18.66;51.44;101199.66;4931981;29;20084;-75
2022/04/08 05:07:03;;;;;;;4.47;2.25;;;;;;;18.58;52.06;101197.88;4931937;29;20130;-73
2022/04/08 05:09:58;;;;;;;5.88;2.55;;;;;;;18.49;49.93;101197.84;4766026;27;9185905;-74
2022/04/08 05:12:27;;;;;;;7.43;2.10;;;;;;;18.42;48.61;101206.56;5088205;28;20079;-72
2022/04/08 05:14:55;;;;;;;5.78;1.85;;;;;;;18.38;49.27;101204.78;5086709;28;20094;-74
2022/04/08 05:17:24;;;;;;;3.58;2.08;;;;;;;18.32;48.30;101205.63;5085976;28;20055;-74
2022/04/08 05:19:52;;;;;;;4.35;1.75;;;;;;;18.30;47.43;101201.25;5085691;28;20445;-74
2022/04/08 05:22:21;;;;;;;4.32;1.83;;;;;;;18.25;47.47;101203.84;5085672;28;20123;-75
2022/04/08 05:24:51;;;;;;;8.73;1.98;;;;;;;18.18;49.39;101210.78;5085683;28;20416;-73
2022/04/08 05:27:20;;;;;;;5.82;2.03;;;;;;;18.16;49.40;101220.41;5085544;28;20044;-73
2022/04/08 05:29:48;;;;;;;5.20;2.03;;;;;;;18.13;48.30;101222.13;5085823;28;20079;-73
2022/04/08 05:32:17;;;;;;;4.88;2.17;;;;;;;18.12;47.27;101222.97;5084993;28;20055;-74
2022/04/08 05:34:45;;;;;;;5.68;2.17;;;;;;;18.12;47.12;101238.69;5085740;28;20823;-73
2022/04/08 05:37:14;;;;;;;4.50;1.92;;;;;;;18.11;46.91;101232.56;5084536;28;20720;-73
2022/04/08 05:39:42;;;;;;;4.47;1.95;;;;;;;18.14;47.18;101232.63;5085811;28;20055;-73
2022/04/08 05:42:12;;;;;;;4.15;1.83;;;;;;;18.09;46.35;101233.44;5084890;28;20048;-73
2022/04/08 05:44:41;;;;;;;4.22;1.80;;;;;;;18.16;46.79;101251.84;5085228;28;20080;-72
2022/04/08 05:47:09;;;;;;;3.90;1.70;;;;;;;18.21;46.25;101254.47;5085076;28;20083;-73
2022/04/08 05:49:38;;;;;;;4.43;1.95;;;;;;;18.21;46.45;101264.97;5085057;28;20131;-73
2022/04/08 05:52:07;;;;;;;5.10;2.15;;;;;;;18.21;46.25;101257.97;5084594;28;20127;-72
2022/04/08 05:54:35;;;;;;;6.25;2.60;;;;;;;18.16;46.04;101245.69;5084801;28;20048;-72
2022/04/08 05:57:04;;;;;;;5.30;2.50;;;;;;;18.07;46.05;101259.59;5084336;28;20052;-73
2022/04/08 05:59:37;;;;;;;7.90;2.75;;;;;;;18.02;46.37;101253.47;5085223;28;20544;-73
2022/04/08 06:02:13;;;;;;;3.97;2.22;;;;;;;18.00;46.27;101257.81;5084966;28;20064;-73
2022/04/08 06:04:41;;;;;;;5.25;2.45;;;;;;;17.98;44.90;101264.78;5087231;28;20070;-73
2022/04/08 06:07:10;;;;;;;4.55;2.03;;;;;;;17.94;44.62;101260.41;5085478;28;20784;-74
2022/04/08 06:09:38;;;;;;;3.33;1.98;;;;;;;17.93;43.97;101269.09;5049121;28;20149;-73
2022/04/08 06:12:08;;;;;;;3.92;1.70;;;;;;;17.92;43.41;101272.59;5044611;28;20057;-73
2022/04/08 06:14:38;;;;;;;2.97;1.40;;;;;;;17.88;43.90;101270.81;5044415;28;20100;-73
2022/04/08 06:17:06;;;;;;;4.60;1.40;;;;;;;17.78;43.20;101273.34;5044367;28;20049;-74
2022/04/08 06:19:35;;;;;;;5.75;1.48;;;;;;;17.70;42.55;101274.13;5039160;28;20108;-73
2022/04/08 06:22:03;;;;;;;4.00;1.42;;;;;;;17.62;43.43;101270.59;5030888;28;20045;-73
2022/04/08 06:24:32;;;;;;;2.38;1.40;;;;;;;17.57;44.17;101281.88;5030862;28;20053;-73
2022/04/08 06:27:00;;;;;;;4.35;1.33;;;;;;;17.54;42.76;101278.34;5030575;28;20049;-73
2022/04/08 06:29:29;;;;;;;3.03;1.23;;;;;;;17.46;43.31;101277.41;5030876;28;20049;-73
2022/04/08 06:31:59;;;;;;;6.93;1.45;;;;;;;17.37;41.96;101283.44;5030502;28;20049;-71
2022/04/08 06:34:27;;;;;;;4.97;1.60;;;;;;;17.30;42.15;101281.63;5031371;28;20042;-72
2022/04/08 06:36:56;;;;;;;2.25;1.10;;;;;;;17.27;42.43;101276.34;5030522;28;20543;-74
2022/04/08 06:39:24;;;;;;;1.77;1.00;;;;;;;17.15;42.33;101272.72;5030903;28;20081;-73
2022/04/08 06:41:53;;;;;;;3.65;1.33;;;;;;;17.08;43.53;101286.59;5030730;28;20057;-72
2022/04/08 06:44:21;;;;;;;3.05;1.58;;;;;;;16.99;43.98;101304.78;5029636;28;20103;-74
2022/04/08 06:46:50;;;;;;;4.25;1.70;;;;;;;16.88;42.50;101315.13;5030941;28;20056;-72
2022/04/08 06:49:20;;;;;;;3.42;1.50;;;;;;;16.80;43.55;101316.75;5030296;28;20088;-72
2022/04/08 06:51:49;;;;;;;4.65;1.40;;;;;;;16.70;42.83;101307.03;5030558;28;20487;-75
2022/04/08 06:54:17;;;;;;;3.08;1.48;;;;;;;16.66;43.07;101311.31;5030640;28;20049;-72
2022/04/08 06:56:46;;;;;;;5.95;1.60;;;;;;;16.59;42.62;101311.22;5033282;28;20046;-71
2022/04/08 06:59:14;;;;;;;4.50;1.80;;;;;;;16.52;41.96;101316.38;5032787;28;20108;-70
2022/04/08 07:01:43;;;;;;;2.78;1.50;;;;;;;16.48;42.38;101330.22;5030748;28;20096;-72
2022/04/08 07:04:12;;;;;;;2.03;1.27;;;;;;;16.30;41.54;101311.69;5030300;28;20549;-70
2022/04/08 07:06:42;;;;;;;2.58;1.15;;;;;;;16.36;42.32;101344.88;5030518;28;20113;-73
2022/04/08 07:09:10;;;;;;;4.72;1.23;;;;;;;16.32;41.84;101355.25;5044556;28;20064;-72
2022/04/08 07:11:38;;;;;;;5.18;1.27;;;;;;;16.30;42.07;101341.28;5050505;28;20052;-72
2022/04/08 07:14:07;;;;;;;3.83;1.27;;;;;;;16.28;42.58;101342.13;5049998;28;20076;-72
2022/04/08 07:16:35;;;;;;;3.35;1.23;;;;;;;16.25;41.49;101353.41;5050046;28;20187;-72
2022/04/08 07:19:04;;;;;;;2.17;1.08;;;;;;;16.20;42.08;101364.63;5049551;28;20041;-72
2022/04/08 07:21:32;;;;;;;2.67;1.35;;;;;;;16.16;41.63;101362.81;5050392;28;20112;-72
2022/04/08 07:24:02;;;;;;;4.70;1.35;;;;;;;16.15;41.73;101369.78;5049499;28;20084;-73
2022/04/08 07:26:31;;;;;;;5.60;1.60;;;;;;;16.16;41.52;101375.88;5050080;28;20095;-72
2022/04/08 07:29:00;;;;;;;2.92;1.20;;;;;;;16.15;41.76;101392.38;5049466;28;20091;-73
2022/04/08 07:31:29;;;;;;;6.63;1.27;;;;;;;16.12;41.89;101396.69;5049189;28;20483;-71
2022/04/08 07:33:57;;;;;;;2.22;1.00;;;;;;;16.09;41.03;101395.78;5049956;28;20076;-72
2022/04/08 07:36:26;;;;;;;8.38;1.35;;;;;;;16.01;41.45;101382.59;5049607;28;20049;-72
2022/04/08 07:39:01;;;;;;;2.92;1.15;;;;;;;15.92;41.31;101400.72;5049390;28;20111;-72
2022/04/08 07:41:32;;;;;;;4.72;1.10;;;;;;;15.81;41.42;101413.56;5049521;28;20047;-72
2022/04/08 07:44:00;;;;;;;2.10;1.10;;;;;;;15.73;41.75;101419.47;5049521;28;20049;-73
2022/04/08 07:46:28;;;;;;;3.22;1.52;;;;;;;15.63;43.48;101428.84;5049350;28;20210;-72
2022/04/08 07:48:57;;;;;;;7.18;1.23;;;;;;;15.52;42.97;101430.34;5049621;28;20479;-73
2022/04/08 07:51:26;;;;;;;1.85;0.82;;;;;;;15.43;41.50;101433.63;5051652;28;20056;-71
2022/04/08 07:53:54;;;;;;;1.73;1.27;;;;;;;15.42;41.94;101426.69;5049786;28;20056;-72
2022/04/08 07:56:23;;;;;;;2.17;0.90;;;;;;;15.41;42.04;101427.50;5049476;28;20123;-71
2022/04/08 07:58:53;;;;;;;2.92;1.17;;;;;;;15.40;42.32;101431.84;5049033;28;20573;-72
2022/04/08 08:01:21;;;;;;;2.70;0.90;;;;;;;15.38;40.90;101435.28;5049650;28;20064;-72
2022/04/08 08:03:49;;;;;;;0.93;0.70;;;;;;;15.38;39.39;101443.09;5050659;28;20108;-72
2022/04/08 08:06:18;;;;;;;1.55;0.73;;;;;;;15.42;38.90;101450.16;5049430;28;20127;-73
2022/04/08 08:08:46;;;;;;;2.22;1.05;;;;;;;15.45;38.97;101451.06;5049592;28;20661;-72
2022/04/08 08:11:15;;;;;;;4.05;0.90;;;;;;;15.49;38.87;101452.03;5049175;28;20056;-71
2022/04/08 08:13:44;;;;;;;2.13;0.80;;;;;;;15.53;37.66;101447.75;5049163;28;20057;-72
2022/04/08 08:16:14;;;;;;;2.78;1.13;;;;;;;15.53;37.10;101468.59;5048957;28;20053;-70
2022/04/08 08:18:42;;;;;;;2.42;0.88;;;;;;;15.57;37.09;101481.75;5049186;28;20056;-71
2022/04/08 08:21:12;;;;;;;2.75;0.90;;;;;;;15.59;36.95;101484.38;5048598;28;20520;-71
2022/04/08 08:23:40;;;;;;;1.52;0.77;;;;;;;15.59;35.62;101473.94;5048717;28;20656;-70
2022/04/08 08:26:09;;;;;;;1.63;0.80;;;;;;;15.58;36.81;101482.66;5048524;28;20076;-71
2022/04/08 08:28:37;;;;;;;3.17;1.00;;;;;;;15.48;37.00;101503.31;5048738;28;20056;-70
2022/04/08 08:31:07;;;;;;;2.42;0.90;;;;;;;15.36;36.91;101496.94;5048775;28;20045;-70
2022/04/08 08:33:37;;;;;;;4.40;0.80;;;;;;;15.21;36.34;101503.59;5048926;28;20482;-70
2022/04/08 08:36:07;;;;;;;2.25;0.85;;;;;;;15.12;36.25;101511.22;5048628;28;20111;-70
2022/04/08 08:38:36;;;;;;;2.17;0.60;;;;;;;15.02;35.79;101514.44;5048839;28;20091;-72
2022/04/08 08:41:04;;;;;;;1.73;0.70;;;;;;;14.88;35.64;101507.16;5048570;28;20107;-71
2022/04/08 08:43:33;;;;;;;3.13;0.75;;;;;;;14.77;35.97;101500.81;5048175;28;20080;-72
2022/04/08 08:46:04;;;;;;;2.85;0.75;;;;;;;14.68;35.38;101511.00;5051668;28;20534;-72
2022/04/08 08:48:38;;;;;;;1.20;0.40;;;;;;;14.57;35.34;101515.97;5048808;28;20048;-70
2022/04/08 08:51:07;;;;;;;1.83;0.63;;;;;;;14.49;35.19;101522.66;5048051;28;20048;-72
2022/04/08 08:53:36;;;;;;;1.58;0.45;;;;;;;14.45;35.00;101544.25;5048378;28;20052;-72
2022/04/08 08:56:06;;;;;;;2.10;0.52;;;;;;;14.37;34.55;101541.44;5047749;28;20458;-71
2022/04/08 08:58:36;;;;;;;1.77;0.60;;;;;;;14.22;34.28;101556.66;5048862;28;20631;-71
2022/04/08 09:01:05;;;;;;;1.67;1.13;;;;;;;14.17;34.72;101551.31;5047446;28;20056;-72
2022/04/08 09:03:34;;;;;;;0.90;0.50;;;;;;;14.13;33.49;101557.31;5048345;28;20474;-72
2022/04/08 09:06:11;;;;;;;2.38;0.75;;;;;;;14.08;32.87;101560.59;5048126;28;20049;-72
2022/04/08 09:09:02;;;;;;;2.08;0.68;;;;;;;14.07;33.22;101558.84;5050322;28;20080;-71
2022/04/08 09:11:31;;;;;;;1.83;0.80;;;;;;;13.99;32.27;101553.41;5048292;28;20099;-72
2022/04/08 09:14:04;;;;;;;1.42;0.70;;;;;;;13.95;32.11;101552.47;5048174;28;20048;-72
2022/04/08 09:16:37;;;;;;;2.03;0.60;;;;;;;13.94;31.77;101561.06;5047981;28;20081;-71
2022/04/08 09:19:15;;;;;;;1.95;0.85;;;;;;;13.91;30.72;101571.41;5047980;28;20053;-72
2022/04/08 09:21:54;;;;;;;1.25;0.32;;;;;;;13.88;29.76;101579.13;5047995;28;20060;-70
2022/04/08 09:24:24;;;;;;;0.98;0.43;;;;;;;13.85;30.77;101586.84;5048347;28;20091;-69
2022/04/08 09:26:54;;;;;;;1.95;0.50;;;;;;;13.84;31.37;101590.28;5048401;28;20076;-70
2022/04/08 09:29:23;;;;;;;1.55;0.40;;;;;;;13.84;31.81;101585.09;5048076;28;20073;-72
2022/04/08 09:31:51;;;;;;;1.05;0.60;;;;;;;13.85;32.29;101581.63;5047301;28;20053;-72
2022/04/08 09:34:22;;;;;;;2.33;0.55;;;;;;;13.85;33.13;101591.16;5067938;28;20062;-72
2022/04/08 09:36:54;;;;;;;1.17;0.60;;;;;;;13.83;34.14;101598.91;5068311;28;20052;-72
2022/04/08 09:39:22;;;;;;;1.92;1.02;;;;;;;13.81;34.82;101601.50;5071294;28;20055;-71
2022/04/08 09:41:53;;;;;;;1.02;0.52;;;;;;;13.78;36.06;101605.69;5067927;28;20060;-71
2022/04/08 09:44:25;;;;;;;2.00;0.60;;;;;;;13.79;38.02;101610.09;5068273;28;20044;-71
2022/04/08 09:46:54;;;;;;;3.00;0.60;;;;;;;13.75;39.67;101611.69;5067785;28;20540;-72
2022/04/08 09:49:22;;;;;;;3.38;1.02;;;;;;;13.71;40.60;101614.16;5067485;28;20048;-72
2022/04/08 09:51:54;;;;;;;2.05;1.05;;;;;;;13.68;41.07;101603.66;5067576;28;20044;-72
2022/04/08 09:54:23;;;;;;;1.35;0.63;;;;;;;13.69;42.50;101615.81;5068613;28;20509;-72
2022/04/08 09:56:53;;;;;;;1.90;0.70;;;;;;;13.63;43.61;101613.94;5073875;28;20072;-71
2022/04/08 09:59:24;;;;;;;1.95;0.85;;;;;;;13.58;44.32;101619.00;5091674;28;20492;-71
2022/04/08 10:01:54;;;;;;;1.83;0.52;;;;;;;13.55;45.72;101626.69;5089304;28;20560;-72
2022/04/08 10:04:22;;;;;;;1.20;0.70;;;;;;;13.55;46.82;101631.88;5071458;28;20041;-72
2022/04/08 10:06:51;;;;;;;2.13;0.55;;;;;;;13.55;48.48;101618.88;5071794;28;20464;-71
2022/04/08 10:09:23;;;;;;;1.63;0.63;;;;;;;13.53;51.62;101633.53;5062318;28;20085;-72
2022/04/08 10:11:59;;;;;;;4.03;0.80;;;;;;;13.49;52.82;101636.91;5051318;28;20111;-73
2022/04/08 10:14:39;;;;;;;0.77;0.70;;;;;;;13.49;53.44;101649.91;5051351;28;20087;-73
2022/04/08 10:17:09;;;;;;;2.78;0.50;;;;;;;13.46;55.34;101651.50;5050369;28;20049;-74
2022/04/08 10:19:37;;;;;;;2.42;0.68;;;;;;;13.47;56.18;101648.97;5051009;28;20049;-73
2022/04/08 10:22:17;;;;;;;2.72;0.50;;;;;;;13.46;57.23;101649.78;5070984;28;20091;-72
2022/04/08 10:24:55;;;;;;;4.45;0.70;;;;;;;13.50;60.52;101653.38;5071342;28;20055;-73
2022/04/08 10:27:32;;;;;;;4.07;0.70;;;;;;;13.50;60.38;101662.06;5070943;28;20132;-73
2022/04/08 10:30:01;;;;;;;2.90;1.00;;;;;;;13.50;60.82;101662.06;5070531;28;20383;-72
2022/04/08 10:32:39;;;;;;;4.35;1.08;;;;;;;13.45;61.24;101662.75;5070859;28;20463;-72
2022/04/08 10:35:25;;;;;;;4.00;0.63;;;;;;;13.37;63.56;101659.88;5073932;28;20135;-73
2022/04/08 10:37:58;;;;;;;2.83;0.70;;;;;;;13.41;64.41;101666.97;5071672;28;20049;-73
2022/04/08 10:40:34;;;;;;;1.65;0.40;;;;;;;13.39;64.74;101663.44;5071081;28;20072;-72
2022/04/08 10:43:05;;;;;;;2.10;0.65;;;;;;;13.28;66.74;101667.38;5070406;28;20048;-72
2022/04/08 10:45:33;;;;;;;3.97;1.20;;;;;;;13.16;67.36;101663.50;5071174;28;20067;-74
2022/04/08 10:48:03;;;;;;;3.65;0.90;;;;;;;13.12;68.54;101665.97;5071062;28;20105;-76
2022/04/08 10:50:35;;;;;;;1.02;0.57;;;;;;;13.08;69.13;101672.78;5070613;28;20105;-76
2022/04/08 10:53:08;;;;;;;2.80;0.60;;;;;;;13.08;70.95;101677.97;5070583;28;20048;-78
2022/04/08 10:55:53;;;;;;;0.80;0.30;;;;;;;13.05;72.98;101677.84;5071029;28;20289;-77
2022/04/08 10:58:35;;;;;;;2.05;0.70;;;;;;;12.97;74.80;101684.53;5070183;28;20102;-75
2022/04/08 11:01:15;;;;;;;0.63;0.43;;;;;;;12.90;75.97;101672.16;5070300;28;20091;-75
2022/04/08 11:03:47;;;;;;;2.53;0.60;;;;;;;12.92;76.53;101686.09;5070202;28;20102;-73
2022/04/08 11:06:18;;;;;;;1.67;0.68;;;;;;;12.92;77.19;101681.78;5069734;28;20044;-73
2022/04/08 11:08:46;;;;;;;0.85;0.50;;;;;;;12.86;77.67;101684.16;5065194;27;20532;-72
2022/04/08 11:11:16;;;;;;;2.67;0.50;;;;;;;12.85;78.44;101681.47;5030257;28;20049;-76
2022/04/08 11:13:45;;;;;;;1.60;0.60;;;;;;;12.84;78.86;101684.91;5030076;28;20049;-75
2022/04/08 11:16:17;;;;;;;1.00;0.65;;;;;;;12.82;79.78;101686.59;5029332;28;20049;-75
2022/04/08 11:18:49;;;;;;;3.60;0.70;;;;;;;12.74;84.20;101681.13;5030470;28;20049;-76
2022/04/08 11:21:19;;;;;;;0.60;0.30;;;;;;;12.59;87.37;101681.44;5030267;28;20057;-76
2022/04/08 11:23:58;;;;;;;2.42;0.65;;;;;;;12.54;89.97;101690.78;5028420;28;20780;-76
2022/04/08 11:26:30;;;;;;;0.47;0.40;;;;;;;12.48;95.83;101686.25;5024306;28;20041;-75
2022/04/08 11:28:58;;;;;;;0.73;0.30;;;;;;;12.46;100.00;101693.13;5032349;28;20079;-76
2022/04/08 11:31:27;;;;;;;3.45;0.43;;;;;;;12.47;100.00;101692.28;5030669;28;20088;-76
2022/04/08 11:33:55;;;;;;;0.75;0.43;;;;;;;12.46;100.00;101693.13;5029263;28;20471;-77
2022/04/08 11:36:24;;;;;;;2.28;0.20;;;;;;;12.47;100.00;101696.59;5029750;28;20049;-76